Time;durP1;ratioP1;P1;durP2;ratioP2;P2;SDS_P1;SDS_P2;PMS_P1;PMS_P2;Temp;Humidity;BMP_temperature;BMP_pressure;BME280_temperature;BME280_humidity;BME280_pressure;Samples;Min_cycle;Max_cycle;Signal;HPM_P1;HPM_P2
2023/03/10 00:01:06;;;;;;;34.70;18.20;;;;;;;4.76;100.00;98619.97;5043700;28;20161;-59
2023/03/10 00:03:32;;;;;;;32.53;18.33;;;;;;;4.74;100.00;98606.22;5035434;28;20112;-58
2023/03/10 00:05:58;;;;;;;29.80;17.88;;;;;;;4.76;100.00;98619.97;5044628;28;20060;-58
2023/03/10 00:08:23;;;;;;;28.58;17.10;;;;;;;4.73;100.00;98626.38;5036591;28;20037;-58
2023/03/10 00:10:48;;;;;;;30.50;17.83;;;;;;;4.77;100.00;98627.69;5025894;28;20041;-59
2023/03/10 00:13:14;;;;;;;29.02;17.40;;;;;;;4.78;100.00;98620.63;5019874;28;20474;-60
2023/03/10 00:15:39;;;;;;;28.95;17.63;;;;;;;4.78;100.00;98612.75;5032657;28;20045;-59
2023/03/10 00:18:04;;;;;;;26.50;16.90;;;;;;;4.78;100.00;98618.00;5029491;28;20029;-58
2023/03/10 00:20:29;;;;;;;27.23;17.42;;;;;;;4.77;100.00;98611.09;5038349;28;20071;-58
2023/03/10 00:22:55;;;;;;;30.30;17.42;;;;;;;4.77;100.00;98608.47;5019465;28;20025;-59
2023/03/10 00:25:20;;;;;;;27.38;17.52;;;;;;;4.78;100.00;98613.53;5033121;28;20033;-58
2023/03/10 00:27:45;;;;;;;33.63;17.98;;;;;;;4.79;100.00;98603.88;5031283;28;20117;-58
2023/03/10 00:30:11;;;;;;;26.17;16.20;;;;;;;4.78;100.00;98597.00;5031602;28;20104;-58
2023/03/10 00:32:36;;;;;;;26.95;16.20;;;;;;;4.80;100.00;98595.00;5016913;28;20034;-59
2023/03/10 00:35:02;;;;;;;28.20;17.10;;;;;;;4.80;100.00;98600.25;5028841;28;20057;-58
2023/03/10 00:37:27;;;;;;;27.38;17.33;;;;;;;4.82;100.00;98606.13;5028610;28;20045;-59
2023/03/10 00:39:52;;;;;;;28.08;17.30;;;;;;;4.81;100.00;98607.13;5026511;28;20029;-57
2023/03/10 00:42:19;;;;;;;28.15;17.08;;;;;;;4.80;100.00;98606.28;5032234;28;20374;-62
2023/03/10 00:44:44;;;;;;;27.08;16.50;;;;;;;4.80;100.00;98611.53;5036738;28;20033;-59
2023/03/10 00:47:09;;;;;;;28.45;16.88;;;;;;;4.82;100.00;98606.13;5029082;28;20088;-58
2023/03/10 00:49:35;;;;;;;27.55;16.77;;;;;;;4.82;100.00;98609.56;5026318;28;20486;-58
2023/03/10 00:52:00;;;;;;;27.52;17.58;;;;;;;4.85;100.00;98608.41;5027445;28;20036;-58
2023/03/10 00:54:25;;;;;;;27.92;17.25;;;;;;;4.87;100.00;98603.78;5041865;28;20051;-59
2023/03/10 00:56:50;;;;;;;29.48;17.63;;;;;;;4.91;100.00;98610.31;5028960;28;20108;-59
2023/03/10 00:59:16;;;;;;;30.02;17.30;;;;;;;4.94;100.00;98612.56;5036674;28;20029;-58
2023/03/10 01:01:41;;;;;;;27.83;16.90;;;;;;;4.97;100.00;98612.22;5030805;28;20103;-58
2023/03/10 01:04:11;;;;;;;29.33;17.90;;;;;;;5.03;100.00;98615.13;5032627;28;20477;-58
2023/03/10 01:06:37;;;;;;;32.15;17.90;;;;;;;5.11;100.00;98615.03;5027332;28;20080;-58
2023/03/10 01:09:04;;;;;;;32.58;16.77;;;;;;;5.21;100.00;98615.59;5036589;28;20410;-58
2023/03/10 01:11:30;;;;;;;34.42;17.20;;;;;;;5.31;100.00;98619.72;5022493;28;20025;-58
2023/03/10 01:13:58;;;;;;;29.23;16.30;;;;;;;5.43;100.00;98613.00;5027246;28;20029;-59
2023/03/10 01:16:23;;;;;;;31.20;15.57;;;;;;;5.56;100.00;98603.66;5029383;28;20394;-58
2023/03/10 01:18:49;;;;;;;32.78;15.75;;;;;;;5.66;100.00;98609.44;5020297;28;20053;-59
2023/03/10 01:21:27;;;;;;;29.88;14.80;;;;;;;5.72;100.00;98606.09;5017379;28;20045;-57
2023/03/10 01:23:53;;;;;;;32.63;15.15;;;;;;;5.84;100.00;98597.72;5024312;28;20041;-57
2023/03/10 01:26:19;;;;;;;26.83;14.07;;;;;;;5.96;100.00;98583.06;5028151;28;20042;-58
2023/03/10 01:28:44;;;;;;;27.15;14.10;;;;;;;6.05;100.00;98584.63;5024809;28;20049;-58
2023/03/10 01:31:10;;;;;;;28.58;13.25;;;;;;;6.14;100.00;98584.47;5032172;28;20373;-58
2023/03/10 01:33:41;;;;;;;28.85;13.48;;;;;;;6.21;100.00;98574.81;5022100;28;20107;-62
2023/03/10 01:36:11;;;;;;;28.35;14.10;;;;;;;6.33;100.00;98583.84;5025667;28;20048;-59
2023/03/10 01:38:37;;;;;;;27.95;14.45;;;;;;;6.39;100.00;98577.03;5033159;28;20448;-60
2023/03/10 01:41:03;;;;;;;26.80;13.50;;;;;;;6.48;100.00;98575.06;5017687;28;20029;-59
2023/03/10 01:43:33;;;;;;;26.65;13.82;;;;;;;6.52;100.00;98578.13;5031786;28;20051;-59
2023/03/10 01:46:01;;;;;;;24.02;13.20;;;;;;;6.66;100.00;98579.03;5034405;28;20118;-58
2023/03/10 01:48:29;;;;;;;25.48;13.68;;;;;;;6.67;100.00;98572.78;5025547;28;20046;-58
2023/03/10 01:50:56;;;;;;;26.92;13.98;;;;;;;6.68;100.00;98558.59;5032431;28;20565;-57
2023/03/10 01:53:24;;;;;;;24.65;13.48;;;;;;;6.71;100.00;98555.59;5026902;28;20116;-58
2023/03/10 01:55:54;;;;;;;25.92;13.40;;;;;;;6.70;100.00;98557.41;5027261;28;20354;-58
2023/03/10 01:58:21;;;;;;;29.13;13.40;;;;;;;6.70;100.00;98556.56;5023290;28;20480;-58
2023/03/10 02:00:47;;;;;;;27.23;14.18;;;;;;;6.70;100.00;98556.56;5038028;28;20461;-59
2023/03/10 02:03:20;;;;;;;25.85;13.88;;;;;;;6.72;100.00;98554.56;5026220;28;20168;-58
2023/03/10 02:05:52;;;;;;;;;;;;;;;6.73;100.00;98562.25;5029944;28;20037;-59
2023/03/10 02:08:19;;;;;;;23.83;12.38;;;;;;;6.81;100.00;98553.41;5027085;28;19913;-58
2023/03/10 02:10:44;;;;;;;25.02;13.15;;;;;;;6.84;100.00;98568.84;5026522;28;20021;-58
2023/03/10 02:13:10;;;;;;;27.17;14.45;;;;;;;6.82;100.00;98565.56;5028627;28;20059;-58
2023/03/10 02:15:36;;;;;;;25.38;14.00;;;;;;;6.89;100.00;98559.50;5025645;28;20113;-58
2023/03/10 02:18:04;;;;;;;27.48;13.73;;;;;;;6.93;100.00;98551.06;5027965;28;20029;-58
2023/03/10 02:20:48;;;;;;;24.38;13.13;;;;;;;6.92;100.00;98556.50;5035718;28;20084;-58
2023/03/10 02:23:24;;;;;;;26.42;13.35;;;;;;;6.93;100.00;98547.59;5017828;28;20044;-58
2023/03/10 02:26:25;;;;;;;26.40;12.85;;;;;;;6.92;100.00;98538.06;5024048;28;20046;-59
2023/03/10 02:28:53;;;;;;;25.15;12.02;;;;;;;6.88;100.00;98531.53;5021133;28;20424;-59
2023/03/10 02:31:19;;;;;;;23.27;12.43;;;;;;;6.96;100.00;98534.03;5028532;28;20068;-58
2023/03/10 02:33:45;;;;;;;24.75;12.10;;;;;;;6.96;100.00;98519.03;5025178;28;20032;-58
2023/03/10 02:36:14;;;;;;;19.95;11.27;;;;;;;6.94;100.00;98515.78;5033000;28;20045;-59
2023/03/10 02:38:39;;;;;;;23.63;12.20;;;;;;;6.99;100.00;98517.81;5032530;28;20045;-58
2023/03/10 02:41:19;;;;;;;24.75;12.05;;;;;;;6.96;100.00;98528.78;5028474;28;20037;-58
2023/03/10 02:43:46;;;;;;;22.38;11.60;;;;;;;6.98;100.00;98513.56;5024934;28;20380;-60
2023/03/10 02:46:12;;;;;;;21.30;11.13;;;;;;;6.92;100.00;98519.63;5021970;28;20399;-58
2023/03/10 02:48:39;;;;;;;21.73;11.05;;;;;;;6.92;100.00;98512.53;5030975;28;20048;-58
2023/03/10 02:51:14;;;;;;;26.33;11.55;;;;;;;6.93;100.00;98513.34;5028663;28;20389;-59
2023/03/10 02:53:39;;;;;;;24.58;12.40;;;;;;;6.94;100.00;98510.50;5030211;28;20116;-59
2023/03/10 02:56:05;;;;;;;23.45;11.50;;;;;;;6.93;100.00;98502.81;5029807;28;20128;-60
2023/03/10 02:58:31;;;;;;;23.20;11.55;;;;;;;6.91;100.00;98499.56;5026933;28;20033;-59
2023/03/10 03:00:56;;;;;;;24.15;11.55;;;;;;;6.91;100.00;98500.34;5025885;28;20086;-58
2023/03/10 03:03:23;;;;;;;19.95;10.52;;;;;;;6.88;100.00;98497.28;5031806;28;20084;-57
2023/03/10 03:05:48;;;;;;;21.38;11.52;;;;;;;6.88;100.00;98498.13;5033848;28;20037;-57
2023/03/10 03:08:15;;;;;;;25.63;11.50;;;;;;;6.86;100.00;98498.31;5019058;28;20075;-58
2023/03/10 03:10:41;;;;;;;25.17;11.32;;;;;;;6.84;100.00;98489.81;5025255;28;20083;-58
2023/03/10 03:13:07;;;;;;;23.48;11.48;;;;;;;6.78;100.00;98485.31;5032403;28;20037;-58
2023/03/10 03:15:32;;;;;;;23.98;11.20;;;;;;;6.81;100.00;98484.09;5040751;28;20033;-58
2023/03/10 03:17:58;;;;;;;24.00;11.40;;;;;;;6.79;100.00;98486.09;5024049;28;20056;-58
2023/03/10 03:20:25;;;;;;;23.38;10.20;;;;;;;6.77;100.00;98481.06;5029354;28;20040;-58
2023/03/10 03:22:50;;;;;;;22.45;10.68;;;;;;;6.81;100.00;98484.09;5020230;28;20342;-58
2023/03/10 03:25:18;;;;;;;22.30;10.05;;;;;;;6.78;100.00;98474.78;5030448;28;20044;-59
2023/03/10 03:27:44;;;;;;;21.73;9.82;;;;;;;6.81;100.00;98479.63;5030663;28;20025;-58
2023/03/10 03:30:14;;;;;;;22.85;10.15;;;;;;;6.85;100.00;98480.88;5031607;28;20034;-60
2023/03/10 03:32:39;;;;;;;23.33;9.82;;;;;;;6.88;100.00;98481.50;5031567;28;20061;-58
2023/03/10 03:35:13;;;;;;;21.45;9.40;;;;;;;6.86;100.00;98485.13;5031937;28;20068;-59
2023/03/10 03:37:38;;;;;;;24.65;9.38;;;;;;;6.89;100.00;98478.66;5025148;28;20129;-58
2023/03/10 03:40:13;;;;;;;17.83;8.25;;;;;;;6.94;100.00;98478.91;5034573;28;20112;-58
2023/03/10 03:42:40;;;;;;;20.95;8.38;;;;;;;6.97;100.00;98477.69;5032769;28;20064;-59
2023/03/10 03:45:07;;;;;;;20.25;7.95;;;;;;;7.00;100.00;98477.28;5027710;28;20022;-58
2023/03/10 03:47:32;;;;;;;19.88;8.45;;;;;;;7.02;100.00;98480.56;5040560;28;20068;-58
2023/03/10 03:49:57;;;;;;;19.25;8.05;;;;;;;7.03;100.00;98476.91;5026718;28;20069;-58
2023/03/10 03:52:23;;;;;;;20.10;7.80;;;;;;;6.99;100.00;98471.22;5031510;28;20088;-58
2023/03/10 03:54:48;;;;;;;19.92;7.75;;;;;;;7.00;100.00;98477.28;5039262;28;20028;-58
2023/03/10 03:57:14;;;;;;;23.65;7.88;;;;;;;7.01;100.00;98473.66;5029317;28;20038;-58
2023/03/10 03:59:39;;;;;;;22.73;6.93;;;;;;;6.99;100.00;98467.75;5023773;28;20105;-60
2023/03/10 04:02:05;;;;;;;20.60;6.93;;;;;;;7.00;100.00;98472.84;5023647;28;20036;-59
2023/03/10 04:04:30;;;;;;;20.85;7.13;;;;;;;7.02;100.00;98470.03;5030189;28;20033;-61
2023/03/10 04:06:55;;;;;;;18.55;6.97;;;;;;;7.02;100.00;98472.66;5025293;28;20035;-57
2023/03/10 04:09:20;;;;;;;12.57;6.13;;;;;;;7.02;100.00;98459.47;5030932;28;20087;-58
2023/03/10 04:11:46;;;;;;;16.55;6.20;;;;;;;7.03;100.00;98461.09;5026416;28;20104;-59
2023/03/10 04:14:11;;;;;;;20.17;6.47;;;;;;;7.04;100.00;98457.44;5027421;28;20040;-60
2023/03/10 04:16:36;;;;;;;25.60;6.53;;;;;;;7.01;100.00;98457.84;5028595;28;20041;-59
2023/03/10 04:19:02;;;;;;;17.88;5.78;;;;;;;7.05;100.00;98459.06;5025475;28;20031;-59
2023/03/10 04:21:27;;;;;;;28.00;6.45;;;;;;;7.06;100.00;98460.69;5031698;28;20533;-59
2023/03/10 04:23:52;;;;;;;18.75;5.90;;;;;;;7.08;100.00;98453.41;5023979;28;20485;-57
2023/03/10 04:26:18;;;;;;;15.38;5.43;;;;;;;7.06;100.00;98454.63;5030433;28;20194;-59
2023/03/10 04:28:43;;;;;;;18.85;5.78;;;;;;;7.06;100.00;98459.88;5027003;28;20048;-58
2023/03/10 04:31:15;;;;;;;17.80;5.30;;;;;;;7.05;100.00;98459.06;5024930;28;20466;-58
2023/03/10 04:33:41;;;;;;;18.63;4.80;;;;;;;7.07;100.00;98457.06;5028247;28;20036;-59
2023/03/10 04:36:07;;;;;;;17.83;4.88;;;;;;;7.07;100.00;98457.06;5031199;28;20029;-59
2023/03/10 04:38:32;;;;;;;20.08;5.00;;;;;;;7.05;100.00;98461.69;5028798;28;20428;-59
2023/03/10 04:40:58;;;;;;;22.42;4.95;;;;;;;7.04;100.00;98449.53;5024970;28;20481;-59
2023/03/10 04:43:24;;;;;;;18.48;4.68;;;;;;;7.02;100.00;98446.31;5018061;28;20057;-60
2023/03/10 04:45:49;;;;;;;16.40;4.75;;;;;;;6.98;100.00;98439.78;5037764;28;20052;-59
2023/03/10 04:48:15;;;;;;;17.17;4.68;;;;;;;7.00;100.00;98443.03;5026363;28;20466;-62
2023/03/10 04:50:41;;;;;;;21.80;4.47;;;;;;;6.96;100.00;98441.81;5033381;28;20041;-60
2023/03/10 04:53:06;;;;;;;18.20;4.40;;;;;;;6.96;100.00;98444.47;5019830;28;20034;-60
2023/03/10 04:55:31;;;;;;;18.10;4.80;;;;;;;6.90;100.00;98437.34;5041021;28;20033;-58
2023/03/10 04:57:56;;;;;;;18.42;5.18;;;;;;;6.91;100.00;98436.31;5026853;28;20029;-58
2023/03/10 05:00:22;;;;;;;20.52;4.70;;;;;;;6.93;100.00;98442.19;5023555;28;20033;-58
2023/03/10 05:02:47;;;;;;;23.80;5.03;;;;;;;6.92;100.00;98437.94;5025358;28;20026;-58
2023/03/10 05:05:13;;;;;;;20.50;4.57;;;;;;;6.92;100.00;98438.78;5025934;28;20030;-59
2023/03/10 05:07:39;;;;;;;24.77;5.38;;;;;;;6.93;100.00;98435.13;5026568;28;20405;-58
2023/03/10 05:10:05;;;;;;;20.90;4.97;;;;;;;6.96;100.00;98433.91;5027395;28;20022;-58
2023/03/10 05:12:30;;;;;;;18.33;4.65;;;;;;;6.98;100.00;98439.78;5028319;28;20026;-58
2023/03/10 05:14:55;;;;;;;18.90;4.90;;;;;;;6.96;100.00;98433.91;5031607;28;20021;-58
2023/03/10 05:17:20;;;;;;;24.80;5.15;;;;;;;6.95;100.00;98438.34;5032835;28;20477;-58
2023/03/10 05:19:46;;;;;;;22.77;5.22;;;;;;;6.96;100.00;98428.66;5028671;28;20030;-58
2023/03/10 05:22:11;;;;;;;22.27;5.00;;;;;;;6.96;100.00;98433.91;5033779;28;20025;-59
2023/03/10 05:24:37;;;;;;;18.15;4.95;;;;;;;6.96;100.00;98433.91;5039973;28;20030;-57
2023/03/10 05:27:02;;;;;;;25.13;5.22;;;;;;;6.95;100.00;98440.16;5035166;28;20037;-58
2023/03/10 05:29:28;;;;;;;19.17;4.63;;;;;;;6.97;100.00;98441.59;5027777;28;20153;-59
2023/03/10 05:31:53;;;;;;;21.40;4.90;;;;;;;6.96;100.00;98436.56;5024063;28;20022;-58
2023/03/10 05:34:19;;;;;;;22.52;4.97;;;;;;;6.95;100.00;98437.53;5026148;28;20477;-59
2023/03/10 05:36:44;;;;;;;22.27;5.60;;;;;;;6.96;100.00;98439.19;5024824;28;20034;-58
2023/03/10 05:39:10;;;;;;;22.85;5.10;;;;;;;6.94;100.00;98439.38;5041731;28;20025;-58
2023/03/10 05:41:36;;;;;;;26.80;5.50;;;;;;;6.95;100.00;98442.81;5026688;28;20044;-58
2023/03/10 05:44:01;;;;;;;21.70;5.10;;;;;;;6.94;100.00;98447.28;5027672;28;20036;-59
2023/03/10 05:46:27;;;;;;;22.98;5.45;;;;;;;6.98;100.00;98447.69;5026379;28;20045;-59
2023/03/10 05:48:53;;;;;;;23.27;5.53;;;;;;;6.98;100.00;98442.44;5025169;28;20073;-57
2023/03/10 05:51:19;;;;;;;28.98;5.40;;;;;;;6.99;100.00;98449.31;5018021;28;20040;-58
2023/03/10 05:53:44;;;;;;;20.23;4.93;;;;;;;6.96;100.00;98439.19;5026636;28;20044;-59
2023/03/10 05:56:13;;;;;;;20.50;5.32;;;;;;;6.94;100.00;98449.09;5028153;28;20136;-58
2023/03/10 05:58:38;;;;;;;24.55;5.60;;;;;;;6.95;100.00;98448.91;5026055;28;20086;-58
2023/03/10 06:01:05;;;;;;;27.38;5.28;;;;;;;6.96;100.00;98445.25;5020851;28;20025;-59
2023/03/10 06:03:30;;;;;;;23.23;6.10;;;;;;;6.96;100.00;98439.19;5022140;28;20052;-59
2023/03/10 06:05:57;;;;;;;23.15;5.53;;;;;;;6.93;100.00;98444.84;5027544;28;20453;-60
2023/03/10 06:08:23;;;;;;;25.05;5.80;;;;;;;6.95;100.00;98442.81;5020592;28;20057;-57
2023/03/10 06:10:50;;;;;;;23.10;5.65;;;;;;;6.95;100.00;98448.06;5022354;28;20057;-60
2023/03/10 06:13:18;;;;;;;21.75;5.60;;;;;;;6.95;100.00;98448.06;5025079;28;20075;-59
2023/03/10 06:15:47;;;;;;;25.20;5.60;;;;;;;6.96;100.00;98447.09;5022749;28;20017;-58
2023/03/10 06:18:12;;;;;;;27.85;6.20;;;;;;;6.95;100.00;98453.34;5021401;28;20053;-59
2023/03/10 06:20:38;;;;;;;24.15;5.85;;;;;;;6.97;100.00;98453.97;5024042;28;20413;-59
2023/03/10 06:23:03;;;;;;;27.95;6.07;;;;;;;6.97;100.00;98456.63;5024509;28;20025;-58
2023/03/10 06:25:29;;;;;;;30.27;5.47;;;;;;;6.99;100.00;98457.22;5020181;28;20105;-61
2023/03/10 06:27:54;;;;;;;27.02;5.55;;;;;;;7.00;100.00;98462.31;5018578;28;20044;-59
2023/03/10 06:30:20;;;;;;;24.63;5.85;;;;;;;7.01;100.00;98468.41;5024672;28;20368;-58
2023/03/10 06:32:45;;;;;;;24.80;5.53;;;;;;;7.05;100.00;98466.19;5023774;28;20057;-59
2023/03/10 06:35:13;;;;;;;28.25;6.03;;;;;;;7.09;100.00;98468.22;5023259;28;20060;-59
2023/03/10 06:37:38;;;;;;;24.67;6.13;;;;;;;7.15;100.00;98468.44;5023517;28;20037;-59
2023/03/10 06:40:06;;;;;;;23.25;6.30;;;;;;;7.11;100.00;98458.28;5025338;28;20092;-59
2023/03/10 06:42:32;;;;;;;21.08;5.65;;;;;;;7.09;100.00;98470.03;5025816;28;20025;-58
2023/03/10 06:44:57;;;;;;;24.80;5.70;;;;;;;7.08;100.00;98463.97;5021487;28;20036;-58
2023/03/10 06:47:23;;;;;;;20.55;5.68;;;;;;;7.07;100.00;98467.59;5019883;28;20068;-59
2023/03/10 06:49:48;;;;;;;24.33;5.53;;;;;;;7.05;100.00;98464.34;5023654;28;20045;-58
2023/03/10 06:52:13;;;;;;;22.25;5.88;;;;;;;7.07;100.00;98467.59;5020596;28;20033;-58
2023/03/10 06:54:39;;;;;;;23.42;5.65;;;;;;;7.05;100.00;98469.59;5027680;28;20037;-59
2023/03/10 06:57:04;;;;;;;19.60;5.72;;;;;;;7.06;100.00;98465.97;5020265;28;20477;-58
2023/03/10 06:59:31;;;;;;;20.80;5.55;;;;;;;7.06;100.00;98471.22;5019490;28;20034;-59
2023/03/10 07:01:56;;;;;;;22.75;6.45;;;;;;;7.06;100.00;98471.22;5018617;28;20036;-58
2023/03/10 07:04:21;;;;;;;24.58;6.70;;;;;;;7.06;100.00;98467.78;5017669;28;20037;-60
2023/03/10 07:06:47;;;;;;;22.75;6.32;;;;;;;7.06;100.00;98470.44;5021826;28;20041;-59
2023/03/10 07:09:12;;;;;;;20.17;6.25;;;;;;;7.08;100.00;98469.22;5024627;28;20021;-61
2023/03/10 07:11:38;;;;;;;20.23;6.50;;;;;;;7.09;100.00;98468.22;5028686;28;20128;-61
2023/03/10 07:14:04;;;;;;;20.08;6.38;;;;;;;7.10;100.00;98466.38;5031684;28;20501;-57
2023/03/10 07:16:29;;;;;;;21.65;7.20;;;;;;;7.15;100.00;98468.44;5032106;28;20120;-59
2023/03/10 07:18:54;;;;;;;25.98;7.15;;;;;;;7.17;100.00;98476.94;5030830;28;20104;-59
2023/03/10 07:21:20;;;;;;;25.92;6.90;;;;;;;7.19;100.00;98481.03;5032005;28;20025;-58
2023/03/10 07:23:46;;;;;;;24.00;7.20;;;;;;;7.22;100.00;98471.91;5030908;28;20433;-58
2023/03/10 07:26:13;;;;;;;29.20;6.60;;;;;;;7.22;100.00;98475.38;5019301;28;20556;-61
2023/03/10 07:28:39;;;;;;;22.63;6.90;;;;;;;7.27;100.00;98483.47;5028936;28;20418;-59
2023/03/10 07:31:06;;;;;;;28.13;6.97;;;;;;;7.31;100.00;98483.91;5036434;28;20035;-58
2023/03/10 07:33:32;;;;;;;25.90;6.60;;;;;;;7.37;100.00;98482.28;5028522;28;20033;-58
2023/03/10 07:35:58;;;;;;;25.05;6.45;;;;;;;7.44;100.00;98490.22;5034428;28;20033;-61
2023/03/10 07:38:23;;;;;;;25.27;6.18;;;;;;;7.56;100.00;98487.81;5020739;28;20029;-58
2023/03/10 07:40:48;;;;;;;22.73;5.40;;;;;;;7.61;100.00;98491.47;5040252;28;20120;-58
2023/03/10 07:43:14;;;;;;;20.40;5.10;;;;;;;7.70;100.00;98501.84;5023288;28;20033;-58
2023/03/10 07:45:39;;;;;;;22.90;4.60;;;;;;;7.71;100.00;98498.19;5024758;28;20475;-59
2023/03/10 07:48:05;;;;;;;21.30;4.63;;;;;;;7.75;100.00;98496.78;5017467;28;20054;-58
2023/03/10 07:50:30;;;;;;;19.92;4.20;;;;;;;7.80;100.00;98497.00;5032399;28;20059;-58
2023/03/10 07:52:55;;;;;;;23.80;4.55;;;;;;;7.81;100.00;98494.13;5028591;28;20053;-58
2023/03/10 07:55:21;;;;;;;16.10;4.00;;;;;;;7.82;100.00;98489.69;5036145;28;20033;-59
2023/03/10 07:57:46;;;;;;;19.20;3.90;;;;;;;7.88;100.00;98494.16;5021652;28;20471;-59
2023/03/10 08:00:13;;;;;;;21.67;4.55;;;;;;;7.91;100.00;98496.38;5017898;28;20041;-58
2023/03/10 08:02:39;;;;;;;17.67;3.90;;;;;;;7.92;100.00;98494.56;5018162;28;20060;-59
2023/03/10 08:05:05;;;;;;;18.13;3.80;;;;;;;7.91;100.00;98499.00;5020255;28;20091;-59
2023/03/10 08:07:30;;;;;;;18.65;3.88;;;;;;;7.96;100.00;98497.59;5024904;28;20036;-58
2023/03/10 08:09:56;;;;;;;19.25;3.53;;;;;;;8.01;100.00;98485.44;5017482;28;20473;-59
2023/03/10 08:12:21;;;;;;;18.40;3.47;;;;;;;8.05;100.00;98499.03;5026259;28;20531;-59
2023/03/10 08:14:47;;;;;;;16.30;3.45;;;;;;;8.06;100.00;98493.53;5031263;28;20041;-59
2023/03/10 08:17:13;;;;;;;15.40;3.55;;;;;;;8.12;100.00;98499.84;5034424;28;20053;-58
2023/03/10 08:19:39;;;;;;;18.10;4.03;;;;;;;8.17;100.00;98499.22;5031774;28;20052;-59
2023/03/10 08:22:04;;;;;;;18.27;3.47;;;;;;;8.21;100.00;98503.91;5026039;28;20408;-59
2023/03/10 08:24:29;;;;;;;20.00;3.40;;;;;;;8.25;100.00;98503.50;5029142;28;20037;-58
2023/03/10 08:26:56;;;;;;;19.02;3.65;;;;;;;8.27;100.00;98501.47;5034716;28;20733;-61
2023/03/10 08:29:21;;;;;;;13.63;3.40;;;;;;;8.30;100.00;98506.34;5033453;28;20022;-59
2023/03/10 08:31:47;;;;;;;19.20;3.70;;;;;;;8.32;100.00;98506.94;5036134;28;20033;-58
2023/03/10 08:34:13;;;;;;;17.02;3.75;;;;;;;8.33;100.00;98498.81;5025541;28;20064;-61
2023/03/10 08:36:39;;;;;;;16.33;3.40;;;;;;;8.34;100.00;98507.56;5027218;28;20168;-58
2023/03/10 08:39:05;;;;;;;17.60;3.45;;;;;;;8.36;100.00;98500.25;5028900;28;20432;-58
2023/03/10 08:41:41;;;;;;;16.70;3.58;;;;;;;8.35;100.00;98499.41;5027094;28;20521;-59
2023/03/10 08:44:07;;;;;;;16.45;3.67;;;;;;;8.42;100.00;98498.59;5026690;28;20037;-59
2023/03/10 08:46:33;;;;;;;20.10;3.78;;;;;;;8.45;100.00;98504.28;5032854;28;20943;-59
2023/03/10 08:49:00;;;;;;;15.07;3.40;;;;;;;8.53;100.00;98505.94;5030489;28;20401;-58
2023/03/10 08:51:26;;;;;;;14.35;3.20;;;;;;;8.61;100.00;98500.44;5027901;28;22616;-59
2023/03/10 08:53:52;;;;;;;23.83;4.00;;;;;;;8.69;100.00;98499.41;5026656;28;20033;-59
2023/03/10 08:56:19;;;;;;;14.43;3.55;;;;;;;8.78;100.00;98507.13;5029121;28;20500;-59
2023/03/10 08:58:45;;;;;;;18.42;3.38;;;;;;;8.83;100.00;98505.47;5031095;28;20510;-59
2023/03/10 09:01:12;;;;;;;14.73;3.35;;;;;;;8.81;100.00;98507.50;5019432;28;20041;-59
2023/03/10 09:03:40;;;;;;;17.35;3.63;;;;;;;8.83;100.00;98509.97;5017719;28;20064;-58
2023/03/10 09:06:06;;;;;;;14.85;3.30;;;;;;;8.81;100.00;98507.50;5020755;28;20036;-58
2023/03/10 09:08:31;;;;;;;19.98;3.40;;;;;;;8.84;100.00;98507.09;5030436;28;20030;-58
2023/03/10 09:10:57;;;;;;;14.00;3.67;;;;;;;8.86;100.00;98506.88;5019662;28;20474;-58
2023/03/10 09:13:22;;;;;;;13.20;3.25;;;;;;;8.90;100.00;98499.34;5016269;28;20116;-58
2023/03/10 09:15:49;;;;;;;18.60;3.63;;;;;;;8.90;100.00;98489.59;5020224;28;20045;-59
2023/03/10 09:18:15;;;;;;;15.40;3.28;;;;;;;8.89;100.00;98490.63;5020736;28;20108;-58
2023/03/10 09:20:42;;;;;;;17.88;3.97;;;;;;;8.94;100.00;98490.78;5018799;28;20433;-59
2023/03/10 09:23:10;;;;;;;17.02;3.42;;;;;;;8.93;100.00;98489.16;5020928;28;20072;-58
2023/03/10 09:25:35;;;;;;;18.73;3.38;;;;;;;8.94;100.00;98497.91;5020587;28;20587;-57
2023/03/10 09:28:01;;;;;;;13.15;3.10;;;;;;;8.91;100.00;98491.22;5022157;28;20056;-58
2023/03/10 09:30:26;;;;;;;16.67;3.55;;;;;;;8.88;100.00;98496.91;5021309;28;20091;-58
2023/03/10 09:32:52;;;;;;;15.18;3.38;;;;;;;8.87;100.00;98506.69;5022301;28;20026;-58
2023/03/10 09:35:17;;;;;;;13.65;3.25;;;;;;;8.84;100.00;98501.00;5024707;28;20059;-58
2023/03/10 09:37:43;;;;;;;16.38;3.50;;;;;;;8.83;100.00;98499.38;5016641;28;20041;-59
2023/03/10 09:40:16;;;;;;;14.02;3.33;;;;;;;8.80;100.00;98499.78;5016957;28;20040;-59
2023/03/10 09:42:46;;;;;;;13.35;2.70;;;;;;;8.79;100.00;98498.97;5026178;28;20069;-58
2023/03/10 09:45:42;;;;;;;14.45;2.80;;;;;;;8.82;100.00;98497.75;5026506;28;20109;-58
2023/03/10 09:48:26;;;;;;;15.20;2.90;;;;;;;8.75;100.00;98509.13;5023156;28;20184;-59
2023/03/10 09:50:55;;;;;;;13.27;2.85;;;;;;;8.72;100.00;98509.56;5022964;28;20045;-59
2023/03/10 09:53:39;;;;;;;10.82;2.67;;;;;;;8.72;100.00;98509.56;5020843;28;20034;-59
2023/03/10 09:56:17;;;;;;;10.13;2.92;;;;;;;8.73;100.00;98513.00;5018901;28;20041;-59
2023/03/10 09:58:47;;;;;;;12.02;3.10;;;;;;;8.73;100.00;98515.66;5022164;28;20049;-59
2023/03/10 10:01:17;;;;;;;13.35;3.40;;;;;;;8.73;100.00;98516.47;5027030;28;20083;-58
2023/03/10 10:03:46;;;;;;;15.98;3.40;;;;;;;8.79;100.00;98519.31;5024719;28;20037;-58
2023/03/10 10:06:20;;;;;;;15.32;3.60;;;;;;;8.77;100.00;98522.16;5026117;28;20437;-58
2023/03/10 10:08:52;;;;;;;12.60;3.20;;;;;;;8.76;100.00;98520.53;5017964;28;20099;-59
2023/03/10 10:11:17;;;;;;;10.32;2.92;;;;;;;8.78;100.00;98528.25;5018152;28;20025;-58
2023/03/10 10:13:43;;;;;;;13.73;3.22;;;;;;;8.77;100.00;98524.00;5016959;28;20157;-59
2023/03/10 10:16:21;;;;;;;13.43;3.20;;;;;;;8.73;100.00;98532.31;5018164;28;20033;-60
2023/03/10 10:19:01;;;;;;;14.98;3.53;;;;;;;8.70;100.00;98532.75;5017665;28;20380;-59
2023/03/10 10:21:37;;;;;;;16.20;3.63;;;;;;;8.63;100.00;98533.78;5016245;28;20117;-57
2023/03/10 10:24:02;;;;;;;14.00;3.60;;;;;;;8.57;100.00;98541.50;5016924;28;20037;-59
2023/03/10 10:26:28;;;;;;;13.95;3.70;;;;;;;8.55;100.00;98540.06;5018749;28;20038;-58
2023/03/10 10:28:58;;;;;;;18.13;3.72;;;;;;;8.47;100.00;98544.53;5021235;28;20038;-58
2023/03/10 10:31:29;;;;;;;17.00;4.15;;;;;;;8.44;100.00;98544.91;5021808;28;20048;-58
2023/03/10 10:34:00;;;;;;;15.18;3.60;;;;;;;8.44;100.00;98534.34;5026052;28;20033;-59
2023/03/10 10:36:31;;;;;;;18.35;4.70;;;;;;;8.38;100.00;98527.25;5018766;28;20026;-58
2023/03/10 10:38:57;;;;;;;23.38;5.40;;;;;;;8.39;100.00;98528.88;5017836;28;20037;-58
2023/03/10 10:41:26;;;;;;;19.83;5.10;;;;;;;8.40;100.00;98534.97;5022511;28;20044;-59
2023/03/10 10:43:54;;;;;;;19.33;5.57;;;;;;;8.42;100.00;98528.47;5023457;28;20033;-58
2023/03/10 10:46:26;;;;;;;17.60;5.00;;;;;;;8.44;100.00;98520.34;5019482;28;20120;-59
2023/03/10 10:49:16;;;;;;;18.15;4.50;;;;;;;8.47;100.00;98520.75;5022427;28;20057;-58
2023/03/10 10:51:42;;;;;;;23.80;8.18;;;;;;;8.46;100.00;98519.13;5025264;28;20065;-59
2023/03/10 10:54:31;;;;;;;19.60;6.15;;;;;;;8.50;100.00;98510.78;5023691;28;20659;-59
2023/03/10 10:56:58;;;;;;;19.75;4.90;;;;;;;8.42;100.00;98499.44;5023477;28;20026;-58
2023/03/10 10:59:34;;;;;;;17.02;4.80;;;;;;;8.47;100.00;98497.00;5019461;28;20512;-59
2023/03/10 11:02:18;;;;;;;17.05;4.78;;;;;;;8.47;100.00;98502.28;5024797;28;20482;-59
2023/03/10 11:04:45;;;;;;;15.85;4.10;;;;;;;8.44;100.00;98492.09;5019800;28;20045;-58
2023/03/10 11:07:31;;;;;;;13.82;3.97;;;;;;;8.47;100.00;98497.00;5019920;28;20040;-58
2023/03/10 11:09:56;;;;;;;16.83;4.28;;;;;;;8.44;100.00;98497.38;5020902;28;20057;-59
2023/03/10 11:12:37;;;;;;;15.88;4.10;;;;;;;8.42;100.00;98498.59;5021828;28;20043;-58
2023/03/10 11:15:21;;;;;;;20.52;4.28;;;;;;;8.42;100.00;98498.59;5015357;28;20022;-58
2023/03/10 11:17:52;;;;;;;13.82;4.10;;;;;;;8.41;100.00;98503.09;5026108;28;20061;-59
2023/03/10 11:20:42;;;;;;;10.93;3.80;;;;;;;8.43;100.00;98495.75;5013652;28;20037;-59
2023/03/10 11:23:26;;;;;;;13.77;3.67;;;;;;;8.41;100.00;98491.69;5021520;28;20040;-59
2023/03/10 11:25:54;;;;;;;13.07;3.78;;;;;;;8.40;100.00;98482.97;5022921;28;20030;-58